sensor_id;sensor_type;location;lat;lon;timestamp;temperature;humidity
22469;DHT22;11401;50.792;4.352;2022-12-01T00:01:18;16.30;59.60
22469;DHT22;11401;50.792;4.352;2022-12-01T00:03:45;16.20;59.60
22469;DHT22;11401;50.792;4.352;2022-12-01T00:06:14;16.10;59.10
22469;DHT22;11401;50.792;4.352;2022-12-01T00:08:42;16.00;58.90
22469;DHT22;11401;50.792;4.352;2022-12-01T00:11:28;16.10;60.00
22469;DHT22;11401;50.792;4.352;2022-12-01T00:13:55;16.10;59.70
22469;DHT22;11401;50.792;4.352;2022-12-01T00:16:22;16.10;59.40
22469;DHT22;11401;50.792;4.352;2022-12-01T00:18:51;16.10;59.20
22469;DHT22;11401;50.792;4.352;2022-12-01T00:21:20;16.00;59.10
22469;DHT22;11401;50.792;4.352;2022-12-01T00:23:49;16.00;59.40
22469;DHT22;11401;50.792;4.352;2022-12-01T00:26:18;16.00;59.70
22469;DHT22;11401;50.792;4.352;2022-12-01T00:28:50;16.00;58.70
22469;DHT22;11401;50.792;4.352;2022-12-01T00:31:17;16.00;59.50
22469;DHT22;11401;50.792;4.352;2022-12-01T00:33:44;15.90;59.40
22469;DHT22;11401;50.792;4.352;2022-12-01T00:36:11;16.00;59.50
22469;DHT22;11401;50.792;4.352;2022-12-01T00:38:38;15.90;59.80
22469;DHT22;11401;50.792;4.352;2022-12-01T00:41:05;16.00;59.90
22469;DHT22;11401;50.792;4.352;2022-12-01T00:43:32;16.00;59.60
22469;DHT22;11401;50.792;4.352;2022-12-01T00:45:59;16.00;58.90
22469;DHT22;11401;50.792;4.352;2022-12-01T00:48:26;16.00;59.50
22469;DHT22;11401;50.792;4.352;2022-12-01T00:50:54;16.00;59.70
22469;DHT22;11401;50.792;4.352;2022-12-01T00:53:22;15.90;58.30
22469;DHT22;11401;50.792;4.352;2022-12-01T00:55:49;15.80;59.40
22469;DHT22;11401;50.792;4.352;2022-12-01T00:58:16;15.80;59.40
22469;DHT22;11401;50.792;4.352;2022-12-01T01:00:42;15.80;59.50
22469;DHT22;11401;50.792;4.352;2022-12-01T01:03:10;15.80;59.20
22469;DHT22;11401;50.792;4.352;2022-12-01T01:05:38;15.80;59.40
22469;DHT22;11401;50.792;4.352;2022-12-01T01:08:12;15.80;59.40
22469;DHT22;11401;50.792;4.352;2022-12-01T01:10:45;15.70;59.00
22469;DHT22;11401;50.792;4.352;2022-12-01T01:13:13;15.70;59.10
22469;DHT22;11401;50.792;4.352;2022-12-01T01:15:40;15.70;59.20
22469;DHT22;11401;50.792;4.352;2022-12-01T01:18:10;15.70;59.30
22469;DHT22;11401;50.792;4.352;2022-12-01T01:20:37;15.70;59.40
22469;DHT22;11401;50.792;4.352;2022-12-01T01:23:04;15.70;59.30
22469;DHT22;11401;50.792;4.352;2022-12-01T01:25:32;15.60;58.70
22469;DHT22;11401;50.792;4.352;2022-12-01T01:27:59;15.60;58.70
22469;DHT22;11401;50.792;4.352;2022-12-01T01:30:26;15.40;59.10
22469;DHT22;11401;50.792;4.352;2022-12-01T01:32:52;15.40;59.40
22469;DHT22;11401;50.792;4.352;2022-12-01T01:35:19;15.30;58.50
22469;DHT22;11401;50.792;4.352;2022-12-01T01:37:46;15.20;59.80
22469;DHT22;11401;50.792;4.352;2022-12-01T01:40:15;15.30;59.70
22469;DHT22;11401;50.792;4.352;2022-12-01T01:42:42;15.30;59.00
22469;DHT22;11401;50.792;4.352;2022-12-01T01:45:22;15.30;59.40
22469;DHT22;11401;50.792;4.352;2022-12-01T01:47:51;15.40;59.50
22469;DHT22;11401;50.792;4.352;2022-12-01T01:50:25;15.30;59.30
22469;DHT22;11401;50.792;4.352;2022-12-01T01:53:00;15.30;59.20
22469;DHT22;11401;50.792;4.352;2022-12-01T01:55:29;15.30;59.00
22469;DHT22;11401;50.792;4.352;2022-12-01T01:57:57;15.10;58.70
22469;DHT22;11401;50.792;4.352;2022-12-01T02:00:25;15.10;60.40
22469;DHT22;11401;50.792;4.352;2022-12-01T02:02:52;15.20;59.90
22469;DHT22;11401;50.792;4.352;2022-12-01T02:05:21;15.20;60.30
22469;DHT22;11401;50.792;4.352;2022-12-01T02:07:50;15.30;59.10
22469;DHT22;11401;50.792;4.352;2022-12-01T02:10:20;15.30;59.70
22469;DHT22;11401;50.792;4.352;2022-12-01T02:18:57;15.30;59.40
22469;DHT22;11401;50.792;4.352;2022-12-01T02:30:06;15.30;59.30
22469;DHT22;11401;50.792;4.352;2022-12-01T02:33:16;15.30;59.30
22469;DHT22;11401;50.792;4.352;2022-12-01T02:35:44;15.20;58.70
22469;DHT22;11401;50.792;4.352;2022-12-01T02:38:23;15.00;60.80
22469;DHT22;11401;50.792;4.352;2022-12-01T02:41:13;15.00;59.80
22469;DHT22;11401;50.792;4.352;2022-12-01T02:46:40;15.00;59.80
22469;DHT22;11401;50.792;4.352;2022-12-01T02:49:12;15.00;60.60
22469;DHT22;11401;50.792;4.352;2022-12-01T02:51:41;15.10;60.00
22469;DHT22;11401;50.792;4.352;2022-12-01T02:54:13;15.20;59.60
22469;DHT22;11401;50.792;4.352;2022-12-01T02:56:45;15.10;59.00
22469;DHT22;11401;50.792;4.352;2022-12-01T02:59:13;15.10;59.50
22469;DHT22;11401;50.792;4.352;2022-12-01T03:07:44;15.20;59.50
22469;DHT22;11401;50.792;4.352;2022-12-01T03:18:35;14.80;60.30
22469;DHT22;11401;50.792;4.352;2022-12-01T03:21:18;14.80;59.50
22469;DHT22;11401;50.792;4.352;2022-12-01T03:23:52;14.60;60.70
22469;DHT22;11401;50.792;4.352;2022-12-01T03:26:21;14.60;62.30
22469;DHT22;11401;50.792;4.352;2022-12-01T03:28:55;14.70;61.00
22469;DHT22;11401;50.792;4.352;2022-12-01T03:31:29;14.80;60.60
22469;DHT22;11401;50.792;4.352;2022-12-01T03:34:05;14.90;60.70
22469;DHT22;11401;50.792;4.352;2022-12-01T03:36:47;15.00;60.50
22469;DHT22;11401;50.792;4.352;2022-12-01T03:39:28;15.00;60.00
22469;DHT22;11401;50.792;4.352;2022-12-01T03:42:02;15.00;60.00
22469;DHT22;11401;50.792;4.352;2022-12-01T03:44:39;14.90;59.30
22469;DHT22;11401;50.792;4.352;2022-12-01T03:47:11;15.00;59.80
22469;DHT22;11401;50.792;4.352;2022-12-01T03:49:39;15.00;59.70
22469;DHT22;11401;50.792;4.352;2022-12-01T03:57:47;15.00;59.70
22469;DHT22;11401;50.792;4.352;2022-12-01T04:00:16;14.80;59.60
22469;DHT22;11401;50.792;4.352;2022-12-01T04:02:43;14.80;60.50
22469;DHT22;11401;50.792;4.352;2022-12-01T04:05:14;14.90;60.40
22469;DHT22;11401;50.792;4.352;2022-12-01T04:07:44;15.00;59.80
22469;DHT22;11401;50.792;4.352;2022-12-01T04:10:11;14.90;59.90
22469;DHT22;11401;50.792;4.352;2022-12-01T04:12:38;14.90;59.90
22469;DHT22;11401;50.792;4.352;2022-12-01T04:15:07;14.90;59.40
22469;DHT22;11401;50.792;4.352;2022-12-01T04:17:35;14.80;59.60
22469;DHT22;11401;50.792;4.352;2022-12-01T04:20:03;14.70;59.70
22469;DHT22;11401;50.792;4.352;2022-12-01T04:22:32;14.70;60.20
22469;DHT22;11401;50.792;4.352;2022-12-01T04:24:59;14.90;60.80
22469;DHT22;11401;50.792;4.352;2022-12-01T04:27:26;14.90;60.60
22469;DHT22;11401;50.792;4.352;2022-12-01T04:29:53;14.90;60.40
22469;DHT22;11401;50.792;4.352;2022-12-01T04:32:20;14.90;60.10
22469;DHT22;11401;50.792;4.352;2022-12-01T04:34:47;14.90;60.20
22469;DHT22;11401;50.792;4.352;2022-12-01T04:37:14;14.80;59.80
22469;DHT22;11401;50.792;4.352;2022-12-01T04:39:42;14.80;60.60
22469;DHT22;11401;50.792;4.352;2022-12-01T04:42:10;14.80;59.60
22469;DHT22;11401;50.792;4.352;2022-12-01T04:44:36;14.80;60.30
22469;DHT22;11401;50.792;4.352;2022-12-01T04:47:04;14.80;60.40
22469;DHT22;11401;50.792;4.352;2022-12-01T04:49:32;14.80;60.00
22469;DHT22;11401;50.792;4.352;2022-12-01T04:51:59;14.90;60.30
22469;DHT22;11401;50.792;4.352;2022-12-01T04:54:26;14.90;59.80
22469;DHT22;11401;50.792;4.352;2022-12-01T04:56:53;14.90;60.20
22469;DHT22;11401;50.792;4.352;2022-12-01T04:59:20;14.90;59.50
22469;DHT22;11401;50.792;4.352;2022-12-01T05:01:46;15.00;60.40
22469;DHT22;11401;50.792;4.352;2022-12-01T05:04:14;14.90;60.20
22469;DHT22;11401;50.792;4.352;2022-12-01T05:06:41;14.90;60.20
22469;DHT22;11401;50.792;4.352;2022-12-01T05:09:12;14.80;60.20
22469;DHT22;11401;50.792;4.352;2022-12-01T05:11:43;14.90;60.60
22469;DHT22;11401;50.792;4.352;2022-12-01T05:14:10;14.90;60.00
22469;DHT22;11401;50.792;4.352;2022-12-01T05:16:37;14.80;60.20
22469;DHT22;11401;50.792;4.352;2022-12-01T05:19:05;14.90;60.90
22469;DHT22;11401;50.792;4.352;2022-12-01T05:21:51;14.80;60.20
22469;DHT22;11401;50.792;4.352;2022-12-01T05:24:20;14.80;61.30
22469;DHT22;11401;50.792;4.352;2022-12-01T05:26:47;14.90;61.10
22469;DHT22;11401;50.792;4.352;2022-12-01T05:29:14;14.90;60.70
22469;DHT22;11401;50.792;4.352;2022-12-01T05:31:41;14.90;60.00
22469;DHT22;11401;50.792;4.352;2022-12-01T05:34:08;14.90;60.30
22469;DHT22;11401;50.792;4.352;2022-12-01T05:36:35;15.00;60.90
22469;DHT22;11401;50.792;4.352;2022-12-01T05:39:03;15.00;60.00
22469;DHT22;11401;50.792;4.352;2022-12-01T05:41:29;15.10;60.40
22469;DHT22;11401;50.792;4.352;2022-12-01T05:43:56;15.00;59.60
22469;DHT22;11401;50.792;4.352;2022-12-01T05:46:23;14.90;60.10
22469;DHT22;11401;50.792;4.352;2022-12-01T05:48:50;15.00;60.60
22469;DHT22;11401;50.792;4.352;2022-12-01T05:51:17;15.00;60.70
22469;DHT22;11401;50.792;4.352;2022-12-01T05:53:44;14.90;59.80
22469;DHT22;11401;50.792;4.352;2022-12-01T05:56:11;14.80;61.20
22469;DHT22;11401;50.792;4.352;2022-12-01T05:58:38;14.90;61.40
22469;DHT22;11401;50.792;4.352;2022-12-01T06:01:05;14.90;60.60
22469;DHT22;11401;50.792;4.352;2022-12-01T06:03:32;15.10;61.20
22469;DHT22;11401;50.792;4.352;2022-12-01T06:05:59;15.10;58.50
22469;DHT22;11401;50.792;4.352;2022-12-01T06:08:26;15.10;56.80
22469;DHT22;11401;50.792;4.352;2022-12-01T06:10:53;15.00;56.70
22469;DHT22;11401;50.792;4.352;2022-12-01T06:13:20;14.90;57.50
22469;DHT22;11401;50.792;4.352;2022-12-01T06:16:01;14.60;58.40
22469;DHT22;11401;50.792;4.352;2022-12-01T06:18:36;14.50;58.90
22469;DHT22;11401;50.792;4.352;2022-12-01T06:21:05;14.30;60.00
22469;DHT22;11401;50.792;4.352;2022-12-01T06:23:32;14.10;60.90
22469;DHT22;11401;50.792;4.352;2022-12-01T06:25:59;14.10;61.80
22469;DHT22;11401;50.792;4.352;2022-12-01T06:28:26;14.10;62.90
22469;DHT22;11401;50.792;4.352;2022-12-01T06:30:53;14.10;62.40
22469;DHT22;11401;50.792;4.352;2022-12-01T06:33:28;14.10;62.10
22469;DHT22;11401;50.792;4.352;2022-12-01T06:35:57;14.10;62.40
22469;DHT22;11401;50.792;4.352;2022-12-01T06:38:24;14.10;62.10
22469;DHT22;11401;50.792;4.352;2022-12-01T06:40:51;14.10;61.80
22469;DHT22;11401;50.792;4.352;2022-12-01T06:43:18;14.20;63.00
22469;DHT22;11401;50.792;4.352;2022-12-01T06:45:45;14.10;61.70
22469;DHT22;11401;50.792;4.352;2022-12-01T06:48:12;14.00;60.40
22469;DHT22;11401;50.792;4.352;2022-12-01T06:50:39;14.00;61.20
22469;DHT22;11401;50.792;4.352;2022-12-01T06:53:06;13.90;61.50
22469;DHT22;11401;50.792;4.352;2022-12-01T06:55:33;13.90;62.20
22469;DHT22;11401;50.792;4.352;2022-12-01T06:58:02;13.80;61.80
22469;DHT22;11401;50.792;4.352;2022-12-01T07:00:29;13.90;62.10
22469;DHT22;11401;50.792;4.352;2022-12-01T07:02:56;14.00;61.60
22469;DHT22;11401;50.792;4.352;2022-12-01T07:05:23;14.00;61.60
22469;DHT22;11401;50.792;4.352;2022-12-01T07:07:50;14.00;61.70
22469;DHT22;11401;50.792;4.352;2022-12-01T07:10:24;14.10;62.70
22469;DHT22;11401;50.792;4.352;2022-12-01T07:12:51;14.30;62.50
22469;DHT22;11401;50.792;4.352;2022-12-01T07:15:18;14.40;60.70
22469;DHT22;11401;50.792;4.352;2022-12-01T07:17:45;14.60;60.40
22469;DHT22;11401;50.792;4.352;2022-12-01T07:20:12;14.60;60.00
22469;DHT22;11401;50.792;4.352;2022-12-01T07:22:39;14.80;60.00
22469;DHT22;11401;50.792;4.352;2022-12-01T07:25:08;14.80;59.80
22469;DHT22;11401;50.792;4.352;2022-12-01T07:27:35;14.70;60.00
22469;DHT22;11401;50.792;4.352;2022-12-01T07:30:02;14.80;60.50
22469;DHT22;11401;50.792;4.352;2022-12-01T07:32:29;14.80;60.20
22469;DHT22;11401;50.792;4.352;2022-12-01T07:34:57;14.90;60.70
22469;DHT22;11401;50.792;4.352;2022-12-01T07:37:23;15.00;59.80
22469;DHT22;11401;50.792;4.352;2022-12-01T07:39:50;15.00;60.00
22469;DHT22;11401;50.792;4.352;2022-12-01T07:42:17;15.10;60.00
22469;DHT22;11401;50.792;4.352;2022-12-01T07:44:44;15.20;59.60
22469;DHT22;11401;50.792;4.352;2022-12-01T07:47:11;15.20;60.10
22469;DHT22;11401;50.792;4.352;2022-12-01T07:49:38;15.20;58.50
22469;DHT22;11401;50.792;4.352;2022-12-01T07:52:05;15.20;59.80
22469;DHT22;11401;50.792;4.352;2022-12-01T07:54:32;15.20;59.60
22469;DHT22;11401;50.792;4.352;2022-12-01T07:56:59;15.20;59.50
22469;DHT22;11401;50.792;4.352;2022-12-01T07:59:26;15.20;59.50
22469;DHT22;11401;50.792;4.352;2022-12-01T08:01:53;15.20;59.60
22469;DHT22;11401;50.792;4.352;2022-12-01T08:04:19;15.40;61.10
22469;DHT22;11401;50.792;4.352;2022-12-01T08:06:46;15.30;58.70
22469;DHT22;11401;50.792;4.352;2022-12-01T08:09:13;15.30;59.40
22469;DHT22;11401;50.792;4.352;2022-12-01T08:11:40;15.20;59.50
22469;DHT22;11401;50.792;4.352;2022-12-01T08:14:07;15.20;58.50
22469;DHT22;11401;50.792;4.352;2022-12-01T08:16:34;15.20;59.70
22469;DHT22;11401;50.792;4.352;2022-12-01T08:19:01;15.10;59.40
22469;DHT22;11401;50.792;4.352;2022-12-01T08:21:28;15.20;59.80
22469;DHT22;11401;50.792;4.352;2022-12-01T08:23:56;15.20;59.40
22469;DHT22;11401;50.792;4.352;2022-12-01T08:26:24;15.30;59.80
22469;DHT22;11401;50.792;4.352;2022-12-01T08:28:51;15.30;59.80
22469;DHT22;11401;50.792;4.352;2022-12-01T08:31:24;15.20;59.40
22469;DHT22;11401;50.792;4.352;2022-12-01T08:33:52;15.20;59.10
22469;DHT22;11401;50.792;4.352;2022-12-01T08:36:20;15.20;59.50
22469;DHT22;11401;50.792;4.352;2022-12-01T08:38:49;15.30;59.50
22469;DHT22;11401;50.792;4.352;2022-12-01T08:41:16;15.30;59.30
22469;DHT22;11401;50.792;4.352;2022-12-01T08:43:44;15.30;59.00
22469;DHT22;11401;50.792;4.352;2022-12-01T08:46:31;15.30;59.30
22469;DHT22;11401;50.792;4.352;2022-12-01T08:48:58;15.30;58.70
22469;DHT22;11401;50.792;4.352;2022-12-01T08:51:26;15.30;59.60
22469;DHT22;11401;50.792;4.352;2022-12-01T08:53:54;15.40;59.80
22469;DHT22;11401;50.792;4.352;2022-12-01T08:56:25;15.40;59.20
22469;DHT22;11401;50.792;4.352;2022-12-01T08:58:53;15.40;58.60
22469;DHT22;11401;50.792;4.352;2022-12-01T09:01:20;15.30;59.20
22469;DHT22;11401;50.792;4.352;2022-12-01T09:03:48;15.40;59.20
22469;DHT22;11401;50.792;4.352;2022-12-01T09:06:17;15.40;59.20
22469;DHT22;11401;50.792;4.352;2022-12-01T09:08:46;15.30;58.40
22469;DHT22;11401;50.792;4.352;2022-12-01T09:11:17;15.30;59.10
22469;DHT22;11401;50.792;4.352;2022-12-01T09:13:46;15.40;58.80
22469;DHT22;11401;50.792;4.352;2022-12-01T09:16:20;15.30;58.90
22469;DHT22;11401;50.792;4.352;2022-12-01T09:18:47;15.30;59.40
22469;DHT22;11401;50.792;4.352;2022-12-01T09:21:17;15.40;59.30
22469;DHT22;11401;50.792;4.352;2022-12-01T09:23:44;15.30;58.70
22469;DHT22;11401;50.792;4.352;2022-12-01T09:26:12;15.30;59.30
22469;DHT22;11401;50.792;4.352;2022-12-01T09:28:44;15.40;59.40
22469;DHT22;11401;50.792;4.352;2022-12-01T09:31:12;15.40;59.10
22469;DHT22;11401;50.792;4.352;2022-12-01T09:33:39;15.40;59.10
22469;DHT22;11401;50.792;4.352;2022-12-01T09:36:07;15.40;59.20
22469;DHT22;11401;50.792;4.352;2022-12-01T09:38:36;15.50;58.50
22469;DHT22;11401;50.792;4.352;2022-12-01T09:41:39;15.50;58.90
22469;DHT22;11401;50.792;4.352;2022-12-01T09:46:51;15.30;58.80
22469;DHT22;11401;50.792;4.352;2022-12-01T09:49:28;15.30;58.80
22469;DHT22;11401;50.792;4.352;2022-12-01T09:52:01;15.40;59.00
22469;DHT22;11401;50.792;4.352;2022-12-01T09:54:28;15.40;58.70
22469;DHT22;11401;50.792;4.352;2022-12-01T09:56:55;15.30;58.80
22469;DHT22;11401;50.792;4.352;2022-12-01T09:59:37;15.20;59.40
22469;DHT22;11401;50.792;4.352;2022-12-01T10:02:36;15.30;59.10
22469;DHT22;11401;50.792;4.352;2022-12-01T10:05:10;15.20;59.30
22469;DHT22;11401;50.792;4.352;2022-12-01T10:07:57;15.20;59.60
22469;DHT22;11401;50.792;4.352;2022-12-01T10:10:41;15.30;59.50
22469;DHT22;11401;50.792;4.352;2022-12-01T10:13:17;15.20;58.90
22469;DHT22;11401;50.792;4.352;2022-12-01T10:21:46;15.30;58.50
22469;DHT22;11401;50.792;4.352;2022-12-01T10:27:19;15.30;59.30
22469;DHT22;11401;50.792;4.352;2022-12-01T10:30:13;15.30;59.10
22469;DHT22;11401;50.792;4.352;2022-12-01T10:33:05;15.40;59.10
22469;DHT22;11401;50.792;4.352;2022-12-01T10:35:35;15.40;59.00
22469;DHT22;11401;50.792;4.352;2022-12-01T10:38:06;15.50;59.10
22469;DHT22;11401;50.792;4.352;2022-12-01T10:40:39;15.50;59.20
22469;DHT22;11401;50.792;4.352;2022-12-01T10:43:08;15.40;58.60
22469;DHT22;11401;50.792;4.352;2022-12-01T10:45:40;15.40;58.90
22469;DHT22;11401;50.792;4.352;2022-12-01T10:50:36;15.40;60.00
22469;DHT22;11401;50.792;4.352;2022-12-01T10:53:03;15.40;58.90
22469;DHT22;11401;50.792;4.352;2022-12-01T10:55:37;15.40;58.90
22469;DHT22;11401;50.792;4.352;2022-12-01T10:58:15;15.50;58.50
22469;DHT22;11401;50.792;4.352;2022-12-01T11:00:55;15.40;58.60
22469;DHT22;11401;50.792;4.352;2022-12-01T11:03:32;15.40;58.60
22469;DHT22;11401;50.792;4.352;2022-12-01T11:06:02;15.40;58.60
22469;DHT22;11401;50.792;4.352;2022-12-01T11:08:42;15.30;59.20
22469;DHT22;11401;50.792;4.352;2022-12-01T11:11:38;15.40;58.60
22469;DHT22;11401;50.792;4.352;2022-12-01T11:14:18;15.30;59.00
22469;DHT22;11401;50.792;4.352;2022-12-01T11:16:48;15.30;59.20
22469;DHT22;11401;50.792;4.352;2022-12-01T11:19:33;15.40;58.90
22469;DHT22;11401;50.792;4.352;2022-12-01T11:22:11;15.40;58.60
22469;DHT22;11401;50.792;4.352;2022-12-01T11:27:27;15.40;58.70
22469;DHT22;11401;50.792;4.352;2022-12-01T11:29:57;15.40;58.70
22469;DHT22;11401;50.792;4.352;2022-12-01T11:32:28;15.50;58.80
22469;DHT22;11401;50.792;4.352;2022-12-01T11:34:58;15.50;58.40
22469;DHT22;11401;50.792;4.352;2022-12-01T11:37:37;15.40;58.30
22469;DHT22;11401;50.792;4.352;2022-12-01T11:40:22;15.40;58.70
22469;DHT22;11401;50.792;4.352;2022-12-01T11:42:59;15.40;58.30
22469;DHT22;11401;50.792;4.352;2022-12-01T11:45:32;15.50;58.70
22469;DHT22;11401;50.792;4.352;2022-12-01T11:48:23;15.50;58.30
22469;DHT22;11401;50.792;4.352;2022-12-01T11:51:14;15.50;58.40
22469;DHT22;11401;50.792;4.352;2022-12-01T11:54:12;15.40;58.50
22469;DHT22;11401;50.792;4.352;2022-12-01T11:56:40;15.30;57.60
22469;DHT22;11401;50.792;4.352;2022-12-01T11:59:27;15.30;58.70
22469;DHT22;11401;50.792;4.352;2022-12-01T12:34:50;15.40;57.70
22469;DHT22;11401;50.792;4.352;2022-12-01T12:40:25;15.40;57.20
22469;DHT22;11401;50.792;4.352;2022-12-01T12:46:04;15.40;57.50
22469;DHT22;11401;50.792;4.352;2022-12-01T12:51:42;15.40;58.00
22469;DHT22;11401;50.792;4.352;2022-12-01T12:56:42;15.50;57.50
22469;DHT22;11401;50.792;4.352;2022-12-01T12:59:44;15.50;58.00
22469;DHT22;11401;50.792;4.352;2022-12-01T13:02:20;15.50;57.20
22469;DHT22;11401;50.792;4.352;2022-12-01T13:07:27;15.60;57.30
22469;DHT22;11401;50.792;4.352;2022-12-01T13:10:32;15.50;57.30
22469;DHT22;11401;50.792;4.352;2022-12-01T13:16:01;15.50;57.90
22469;DHT22;11401;50.792;4.352;2022-12-01T13:21:02;15.50;57.70
22469;DHT22;11401;50.792;4.352;2022-12-01T13:23:29;15.50;57.80
22469;DHT22;11401;50.792;4.352;2022-12-01T13:26:00;15.50;57.20
22469;DHT22;11401;50.792;4.352;2022-12-01T13:28:36;15.50;57.80
22469;DHT22;11401;50.792;4.352;2022-12-01T13:31:12;15.50;57.70
22469;DHT22;11401;50.792;4.352;2022-12-01T13:36:27;15.50;57.10
22469;DHT22;11401;50.792;4.352;2022-12-01T13:39:18;15.40;57.70
22469;DHT22;11401;50.792;4.352;2022-12-01T13:41:56;15.40;57.40
22469;DHT22;11401;50.792;4.352;2022-12-01T13:47:04;15.40;58.20
22469;DHT22;11401;50.792;4.352;2022-12-01T13:49:46;15.40;57.10
22469;DHT22;11401;50.792;4.352;2022-12-01T14:00:21;15.60;56.60
22469;DHT22;11401;50.792;4.352;2022-12-01T14:08:35;15.50;56.50
22469;DHT22;11401;50.792;4.352;2022-12-01T14:11:19;15.50;56.20
22469;DHT22;11401;50.792;4.352;2022-12-01T14:16:57;15.60;57.00
22469;DHT22;11401;50.792;4.352;2022-12-01T14:22:00;15.50;56.80
22469;DHT22;11401;50.792;4.352;2022-12-01T14:24:36;15.50;57.00
22469;DHT22;11401;50.792;4.352;2022-12-01T14:27:04;15.50;57.10
22469;DHT22;11401;50.792;4.352;2022-12-01T14:29:36;15.60;56.20
22469;DHT22;11401;50.792;4.352;2022-12-01T14:34:38;15.60;56.60
22469;DHT22;11401;50.792;4.352;2022-12-01T14:37:18;15.60;56.90
22469;DHT22;11401;50.792;4.352;2022-12-01T14:39:54;15.60;57.00
22469;DHT22;11401;50.792;4.352;2022-12-01T14:42:37;15.60;57.00
22469;DHT22;11401;50.792;4.352;2022-12-01T14:45:40;15.50;55.50
22469;DHT22;11401;50.792;4.352;2022-12-01T14:48:14;15.20;57.40
22469;DHT22;11401;50.792;4.352;2022-12-01T14:50:51;15.30;57.10
22469;DHT22;11401;50.792;4.352;2022-12-01T14:53:25;15.30;56.80
22469;DHT22;11401;50.792;4.352;2022-12-01T14:56:01;15.30;56.50
22469;DHT22;11401;50.792;4.352;2022-12-01T14:58:33;15.40;56.40
22469;DHT22;11401;50.792;4.352;2022-12-01T15:01:10;15.40;56.60
22469;DHT22;11401;50.792;4.352;2022-12-01T15:03:41;15.40;56.10
22469;DHT22;11401;50.792;4.352;2022-12-01T15:06:09;15.40;56.20
22469;DHT22;11401;50.792;4.352;2022-12-01T15:08:41;15.30;56.70
22469;DHT22;11401;50.792;4.352;2022-12-01T15:11:28;15.40;56.50
22469;DHT22;11401;50.792;4.352;2022-12-01T15:13:56;15.50;56.70
22469;DHT22;11401;50.792;4.352;2022-12-01T15:16:27;15.50;56.20
22469;DHT22;11401;50.792;4.352;2022-12-01T15:18:55;15.40;56.20
22469;DHT22;11401;50.792;4.352;2022-12-01T15:21:28;15.40;57.10
22469;DHT22;11401;50.792;4.352;2022-12-01T15:24:04;15.50;57.10
22469;DHT22;11401;50.792;4.352;2022-12-01T15:26:33;15.50;56.70
22469;DHT22;11401;50.792;4.352;2022-12-01T15:31:46;15.50;56.00
22469;DHT22;11401;50.792;4.352;2022-12-01T15:34:21;15.50;56.70
22469;DHT22;11401;50.792;4.352;2022-12-01T15:36:51;15.50;56.00
22469;DHT22;11401;50.792;4.352;2022-12-01T15:39:23;15.50;57.10
22469;DHT22;11401;50.792;4.352;2022-12-01T15:41:52;15.50;56.40
22469;DHT22;11401;50.792;4.352;2022-12-01T15:44:28;15.50;55.80
22469;DHT22;11401;50.792;4.352;2022-12-01T15:46:56;15.50;56.20
22469;DHT22;11401;50.792;4.352;2022-12-01T15:49:26;15.50;56.90
22469;DHT22;11401;50.792;4.352;2022-12-01T15:52:08;15.50;56.00
22469;DHT22;11401;50.792;4.352;2022-12-01T15:54:36;15.50;57.10
22469;DHT22;11401;50.792;4.352;2022-12-01T15:57:04;15.60;56.60
22469;DHT22;11401;50.792;4.352;2022-12-01T15:59:40;15.50;55.30
22469;DHT22;11401;50.792;4.352;2022-12-01T16:02:27;15.60;56.40
22469;DHT22;11401;50.792;4.352;2022-12-01T16:07:32;15.50;56.30
22469;DHT22;11401;50.792;4.352;2022-12-01T16:10:37;15.50;56.00
22469;DHT22;11401;50.792;4.352;2022-12-01T16:16:45;15.50;56.10
22469;DHT22;11401;50.792;4.352;2022-12-01T16:22:02;15.60;56.50
22469;DHT22;11401;50.792;4.352;2022-12-01T16:24:33;15.60;55.80
22469;DHT22;11401;50.792;4.352;2022-12-01T16:27:04;15.60;56.00
22469;DHT22;11401;50.792;4.352;2022-12-01T16:29:55;15.60;56.80
22469;DHT22;11401;50.792;4.352;2022-12-01T16:32:43;15.50;55.60
22469;DHT22;11401;50.792;4.352;2022-12-01T16:35:28;15.50;57.20
22469;DHT22;11401;50.792;4.352;2022-12-01T16:37:57;15.60;56.60
22469;DHT22;11401;50.792;4.352;2022-12-01T16:40:24;15.60;56.30
22469;DHT22;11401;50.792;4.352;2022-12-01T16:42:51;15.60;56.40
22469;DHT22;11401;50.792;4.352;2022-12-01T16:45:18;15.50;55.80
22469;DHT22;11401;50.792;4.352;2022-12-01T16:47:47;15.50;57.00
22469;DHT22;11401;50.792;4.352;2022-12-01T16:50:17;15.70;57.40
22469;DHT22;11401;50.792;4.352;2022-12-01T16:52:44;15.70;56.50
22469;DHT22;11401;50.792;4.352;2022-12-01T16:57:44;15.70;56.50
22469;DHT22;11401;50.792;4.352;2022-12-01T17:00:11;15.70;56.30
22469;DHT22;11401;50.792;4.352;2022-12-01T17:02:38;15.70;55.80
22469;DHT22;11401;50.792;4.352;2022-12-01T17:05:06;15.70;56.90
22469;DHT22;11401;50.792;4.352;2022-12-01T17:07:33;15.60;56.10
22469;DHT22;11401;50.792;4.352;2022-12-01T17:10:00;15.70;56.10
22469;DHT22;11401;50.792;4.352;2022-12-01T17:12:27;15.70;56.10
22469;DHT22;11401;50.792;4.352;2022-12-01T17:14:54;15.70;56.00
22469;DHT22;11401;50.792;4.352;2022-12-01T17:17:21;15.60;55.70
22469;DHT22;11401;50.792;4.352;2022-12-01T17:19:50;15.60;56.30
22469;DHT22;11401;50.792;4.352;2022-12-01T17:22:18;15.70;55.80
22469;DHT22;11401;50.792;4.352;2022-12-01T17:24:45;15.60;55.50
22469;DHT22;11401;50.792;4.352;2022-12-01T17:27:12;15.60;56.80
22469;DHT22;11401;50.792;4.352;2022-12-01T17:29:39;15.60;56.10
22469;DHT22;11401;50.792;4.352;2022-12-01T17:32:12;15.50;55.30
22469;DHT22;11401;50.792;4.352;2022-12-01T17:34:39;15.50;56.60
22469;DHT22;11401;50.792;4.352;2022-12-01T17:37:06;15.50;57.20
22469;DHT22;11401;50.792;4.352;2022-12-01T17:39:33;15.60;56.50
22469;DHT22;11401;50.792;4.352;2022-12-01T17:42:00;15.50;57.00
22469;DHT22;11401;50.792;4.352;2022-12-01T17:44:27;15.60;56.80
22469;DHT22;11401;50.792;4.352;2022-12-01T17:46:54;15.60;56.20
22469;DHT22;11401;50.792;4.352;2022-12-01T17:49:21;15.50;56.00
22469;DHT22;11401;50.792;4.352;2022-12-01T17:51:48;15.50;56.50
22469;DHT22;11401;50.792;4.352;2022-12-01T17:54:15;15.60;56.50
22469;DHT22;11401;50.792;4.352;2022-12-01T17:56:42;15.60;56.70
22469;DHT22;11401;50.792;4.352;2022-12-01T17:59:09;15.50;56.10
22469;DHT22;11401;50.792;4.352;2022-12-01T18:01:36;15.50;56.40
22469;DHT22;11401;50.792;4.352;2022-12-01T18:04:03;15.50;56.10
22469;DHT22;11401;50.792;4.352;2022-12-01T18:06:30;15.40;56.00
22469;DHT22;11401;50.792;4.352;2022-12-01T18:08:59;15.50;56.70
22469;DHT22;11401;50.792;4.352;2022-12-01T18:11:26;15.40;56.40
22469;DHT22;11401;50.792;4.352;2022-12-01T18:13:53;15.40;56.50
22469;DHT22;11401;50.792;4.352;2022-12-01T18:16:26;15.40;56.50
22469;DHT22;11401;50.792;4.352;2022-12-01T18:18:55;15.50;56.90
22469;DHT22;11401;50.792;4.352;2022-12-01T18:21:22;15.40;55.50
22469;DHT22;11401;50.792;4.352;2022-12-01T18:23:55;15.30;56.10